createdAt,value
2016-04-29T00:00:56.067Z,996.81
2016-04-29T00:01:56.055Z,996.79
2016-04-29T00:02:56.041Z,996.84
2016-04-29T00:03:56.044Z,996.84
2016-04-29T00:04:56.047Z,996.84
2016-04-29T00:05:56.033Z,996.83
2016-04-29T00:06:56.036Z,996.85
2016-04-29T00:07:56.038Z,996.84
2016-04-29T00:08:56.229Z,996.81
2016-04-29T00:09:56.044Z,996.82
2016-04-29T00:11:56.019Z,996.8
2016-04-29T00:12:56.004Z,996.82
2016-04-29T00:13:56.226Z,996.8
2016-04-29T00:14:56.065Z,996.77
2016-04-29T00:15:56.092Z,996.81
2016-04-29T00:16:56.135Z,996.78
2016-04-29T00:17:56.177Z,996.81
2016-04-29T00:18:56.195Z,996.75
2016-04-29T00:20:05.181Z,996.76
2016-04-29T00:20:56.244Z,996.78
2016-04-29T00:21:56.231Z,996.78
2016-04-29T00:22:56.231Z,996.72
2016-04-29T00:23:56.276Z,996.74
2016-04-29T00:24:56.253Z,996.74
2016-04-29T00:25:56.244Z,996.76
2016-04-29T00:26:56.268Z,996.73
2016-04-29T00:27:56.259Z,996.74
2016-04-29T00:28:56.266Z,996.74
2016-04-29T00:29:56.990Z,996.8
2016-04-29T00:30:56.260Z,996.73
2016-04-29T00:31:56.249Z,996.78
2016-04-29T00:32:56.237Z,996.76
2016-04-29T00:33:56.446Z,996.76
2016-04-29T00:34:56.245Z,996.8
2016-04-29T00:35:56.234Z,996.8
2016-04-29T00:36:56.237Z,996.83
2016-04-29T00:37:56.240Z,996.85
2016-04-29T00:38:56.228Z,996.85
2016-04-29T00:39:56.232Z,996.88
2016-04-29T00:40:56.219Z,996.87
2016-04-29T00:41:56.222Z,996.82
2016-04-29T00:42:56.225Z,996.86
2016-04-29T00:43:56.212Z,996.8
2016-04-29T18:19:09.719Z,997.23
2016-04-29T18:20:09.737Z,997.25
2016-04-29T18:21:09.725Z,997.23
2016-04-29T18:22:09.728Z,997.23
2016-04-29T18:23:09.747Z,997.23
2016-04-29T18:24:09.749Z,997.23
2016-04-29T18:25:09.752Z,997.24
2016-04-29T22:35:26.903Z,997.56
2016-04-29T22:36:26.905Z,997.57
2016-04-29T22:37:26.923Z,997.58
2016-04-29T22:38:26.942Z,997.58
2016-04-29T22:39:26.914Z,997.55
2016-04-29T22:40:26.901Z,997.59
2016-04-29T22:41:26.904Z,997.59
2016-04-29T22:42:26.890Z,997.59
2016-04-29T22:43:26.908Z,997.58
2016-04-29T22:44:26.927Z,997.6
2016-04-29T22:45:26.913Z,997.57
2016-04-29T22:46:26.916Z,997.61
2016-04-29T22:47:27.139Z,997.58
2016-04-29T22:48:26.906Z,997.59
2016-04-29T22:49:26.893Z,997.61
2016-04-29T22:50:26.911Z,997.6
2016-04-29T22:51:26.899Z,997.58
2016-04-29T22:53:26.904Z,997.53
2016-04-29T22:54:26.908Z,997.61
2016-04-29T22:55:26.894Z,997.6
2016-04-29T22:56:26.896Z,997.59
2016-04-29T22:57:26.900Z,997.58
2016-04-29T22:58:26.902Z,997.58
2016-04-29T22:59:26.936Z,997.53
2016-04-29T23:00:27.096Z,997.54
2016-04-29T23:01:27.129Z,997.54
2016-04-29T23:02:26.896Z,997.56
2016-04-29T23:03:26.899Z,997.57
2016-04-29T23:04:26.902Z,997.58
2016-04-29T23:05:26.921Z,997.56
2016-04-29T23:06:26.893Z,997.57
2016-04-29T23:07:26.895Z,997.51
2016-04-29T23:08:26.928Z,997.55
2016-04-29T23:09:26.901Z,997.54
2016-04-29T23:10:26.904Z,997.54
2016-04-29T23:11:26.890Z,997.56
2016-04-29T23:12:26.893Z,997.55
2016-04-29T23:13:26.896Z,997.57
2016-04-29T23:14:26.914Z,997.5
2016-04-29T23:15:26.886Z,997.57
2016-04-29T23:16:26.889Z,997.58
2016-04-29T23:17:26.906Z,997.55
2016-04-29T23:18:26.909Z,997.51
2016-04-29T23:19:26.896Z,997.53
2016-04-29T23:20:26.883Z,997.53
2016-04-29T23:21:26.886Z,997.57
2016-04-29T23:22:26.888Z,997.54
2016-04-29T23:23:27.095Z,997.56
2016-04-29T23:24:26.894Z,997.54
2016-04-29T23:25:26.880Z,997.53
2016-04-29T23:26:27.102Z,997.54
2016-04-29T23:27:26.886Z,997.52
2016-04-29T23:28:26.874Z,997.53
2016-04-29T23:29:26.892Z,997.54
2016-04-29T23:30:27.097Z,997.53
2016-04-29T23:31:26.897Z,997.51
2016-04-29T23:32:26.885Z,997.56
2016-04-29T23:33:26.887Z,997.52
2016-04-29T23:34:26.890Z,997.51
2016-04-29T23:36:26.879Z,997.55
2016-04-29T23:37:26.882Z,997.55
2016-04-29T23:38:26.868Z,997.54
2016-04-29T23:39:26.887Z,997.57
2016-04-29T23:40:26.906Z,997.56
2016-04-29T23:41:26.892Z,997.56
2016-04-29T23:42:26.911Z,997.56
2016-04-29T23:43:26.867Z,997.52
2016-04-29T23:44:26.870Z,997.55
2016-04-29T23:45:26.872Z,997.53
2016-04-29T23:46:26.875Z,997.55
2016-04-29T23:47:26.862Z,997.5
2016-04-29T23:48:27.678Z,997.51
2016-04-29T23:49:26.868Z,997.51
2016-04-29T23:50:26.870Z,997.47
2016-04-29T23:51:26.858Z,997.5
2016-04-29T23:52:26.860Z,997.48
2016-04-29T23:53:26.863Z,997.49
2016-04-29T23:54:26.866Z,997.45
2016-04-29T23:55:26.868Z,997.43
2016-04-29T23:56:26.855Z,997.46
2016-04-29T23:57:26.857Z,997.5
2016-04-29T23:58:26.860Z,997.42
2016-04-29T23:59:26.863Z,997.47
